sensor_id;sensor_type;location;lat;lon;timestamp;temperature;humidity
76838;DHT22;65797;47.352;8.164;2024-03-25T00:11:02;4.80;93.10
76838;DHT22;65797;47.352;8.164;2024-03-25T00:13:28;4.80;99.90
76838;DHT22;65797;47.352;8.164;2024-03-25T00:15:53;4.80;99.90
76838;DHT22;65797;47.352;8.164;2024-03-25T00:18:19;4.80;99.90
76838;DHT22;65797;47.352;8.164;2024-03-25T00:20:45;4.90;99.90
76838;DHT22;65797;47.352;8.164;2024-03-25T00:23:11;4.80;99.90
76838;DHT22;65797;47.352;8.164;2024-03-25T00:25:37;4.80;99.90
76838;DHT22;65797;47.352;8.164;2024-03-25T00:28:03;4.80;99.90
76838;DHT22;65797;47.352;8.164;2024-03-25T00:30:29;4.80;99.90
76838;DHT22;65797;47.352;8.164;2024-03-25T00:32:55;4.70;1.00
76838;DHT22;65797;47.352;8.164;2024-03-25T00:35:21;4.60;1.00
76838;DHT22;65797;47.352;8.164;2024-03-25T00:37:47;4.60;1.00
76838;DHT22;65797;47.352;8.164;2024-03-25T00:40:12;4.60;1.00
76838;DHT22;65797;47.352;8.164;2024-03-25T00:50:24;4.50;1.00
76838;DHT22;65797;47.352;8.164;2024-03-25T00:52:50;4.50;1.00
76838;DHT22;65797;47.352;8.164;2024-03-25T00:55:16;4.40;1.00
76838;DHT22;65797;47.352;8.164;2024-03-25T00:57:41;4.40;1.00
76838;DHT22;65797;47.352;8.164;2024-03-25T01:00:08;4.40;99.90
76838;DHT22;65797;47.352;8.164;2024-03-25T01:02:33;4.40;99.90
76838;DHT22;65797;47.352;8.164;2024-03-25T01:04:59;4.40;99.90
76838;DHT22;65797;47.352;8.164;2024-03-25T01:07:25;4.40;99.90
76838;DHT22;65797;47.352;8.164;2024-03-25T01:09:51;4.30;99.90
76838;DHT22;65797;47.352;8.164;2024-03-25T01:12:17;4.30;99.90
76838;DHT22;65797;47.352;8.164;2024-03-25T01:14:42;4.30;99.90
76838;DHT22;65797;47.352;8.164;2024-03-25T01:17:08;4.30;1.00
76838;DHT22;65797;47.352;8.164;2024-03-25T01:19:33;4.30;99.90
76838;DHT22;65797;47.352;8.164;2024-03-25T01:21:59;4.30;1.00
76838;DHT22;65797;47.352;8.164;2024-03-25T01:24:25;4.30;1.00
76838;DHT22;65797;47.352;8.164;2024-03-25T01:26:51;4.30;1.00
76838;DHT22;65797;47.352;8.164;2024-03-25T01:29:17;4.30;1.00
76838;DHT22;65797;47.352;8.164;2024-03-25T01:31:44;4.30;1.00
76838;DHT22;65797;47.352;8.164;2024-03-25T01:34:09;4.40;1.00
76838;DHT22;65797;47.352;8.164;2024-03-25T01:36:36;4.40;1.00
76838;DHT22;65797;47.352;8.164;2024-03-25T01:39:02;4.40;1.00
76838;DHT22;65797;47.352;8.164;2024-03-25T01:41:30;4.40;1.00
76838;DHT22;65797;47.352;8.164;2024-03-25T01:43:56;4.40;1.00
76838;DHT22;65797;47.352;8.164;2024-03-25T01:46:22;4.40;1.00
76838;DHT22;65797;47.352;8.164;2024-03-25T01:48:49;4.40;1.00
76838;DHT22;65797;47.352;8.164;2024-03-25T01:51:17;4.40;99.90
76838;DHT22;65797;47.352;8.164;2024-03-25T01:53:44;4.30;1.00
76838;DHT22;65797;47.352;8.164;2024-03-25T01:56:13;4.40;1.00
76838;DHT22;65797;47.352;8.164;2024-03-25T01:58:39;4.40;1.00
76838;DHT22;65797;47.352;8.164;2024-03-25T02:01:05;4.40;1.00
76838;DHT22;65797;47.352;8.164;2024-03-25T02:03:31;4.40;1.00
76838;DHT22;65797;47.352;8.164;2024-03-25T02:06:01;4.40;1.00
76838;DHT22;65797;47.352;8.164;2024-03-25T02:08:28;4.40;1.00
76838;DHT22;65797;47.352;8.164;2024-03-25T02:10:58;4.40;1.00
76838;DHT22;65797;47.352;8.164;2024-03-25T02:13:24;4.30;1.00
76838;DHT22;65797;47.352;8.164;2024-03-25T02:15:50;4.30;1.00
76838;DHT22;65797;47.352;8.164;2024-03-25T02:18:19;4.30;1.00
76838;DHT22;65797;47.352;8.164;2024-03-25T02:20:45;4.30;99.90
76838;DHT22;65797;47.352;8.164;2024-03-25T02:23:12;4.30;99.90
76838;DHT22;65797;47.352;8.164;2024-03-25T02:25:39;4.40;99.90
76838;DHT22;65797;47.352;8.164;2024-03-25T02:28:06;4.40;99.90
76838;DHT22;65797;47.352;8.164;2024-03-25T02:30:31;4.40;1.00
76838;DHT22;65797;47.352;8.164;2024-03-25T02:32:57;4.30;1.00
76838;DHT22;65797;47.352;8.164;2024-03-25T02:53:52;4.40;99.90
76838;DHT22;65797;47.352;8.164;2024-03-25T02:56:18;4.40;99.90
76838;DHT22;65797;47.352;8.164;2024-03-25T02:58:44;4.20;99.90
76838;DHT22;65797;47.352;8.164;2024-03-25T03:01:09;4.20;1.00
76838;DHT22;65797;47.352;8.164;2024-03-25T03:03:35;4.10;1.00
76838;DHT22;65797;47.352;8.164;2024-03-25T03:06:01;4.10;1.00
76838;DHT22;65797;47.352;8.164;2024-03-25T03:29:09;4.10;1.00
76838;DHT22;65797;47.352;8.164;2024-03-25T03:31:35;4.10;99.90
76838;DHT22;65797;47.352;8.164;2024-03-25T03:36:36;4.10;1.00
76838;DHT22;65797;47.352;8.164;2024-03-25T03:39:03;4.10;1.00
76838;DHT22;65797;47.352;8.164;2024-03-25T03:41:30;4.10;1.00
76838;DHT22;65797;47.352;8.164;2024-03-25T03:43:56;4.20;1.00
76838;DHT22;65797;47.352;8.164;2024-03-25T03:46:22;4.10;1.00
76838;DHT22;65797;47.352;8.164;2024-03-25T03:48:47;4.10;28.90
76838;DHT22;65797;47.352;8.164;2024-03-25T03:51:13;4.10;99.90
76838;DHT22;65797;47.352;8.164;2024-03-25T03:53:39;4.10;99.90
76838;DHT22;65797;47.352;8.164;2024-03-25T03:56:05;4.10;99.90
76838;DHT22;65797;47.352;8.164;2024-03-25T03:58:31;4.00;99.90
76838;DHT22;65797;47.352;8.164;2024-03-25T04:00:57;3.90;99.90
76838;DHT22;65797;47.352;8.164;2024-03-25T04:03:23;3.90;99.90
76838;DHT22;65797;47.352;8.164;2024-03-25T04:05:49;3.90;99.90
76838;DHT22;65797;47.352;8.164;2024-03-25T04:08:15;3.90;99.90
76838;DHT22;65797;47.352;8.164;2024-03-25T04:10:43;3.80;99.90
76838;DHT22;65797;47.352;8.164;2024-03-25T04:13:08;3.70;1.00
76838;DHT22;65797;47.352;8.164;2024-03-25T04:15:38;3.70;99.90
76838;DHT22;65797;47.352;8.164;2024-03-25T04:18:05;3.60;43.30
76838;DHT22;65797;47.352;8.164;2024-03-25T04:20:39;3.60;99.90
76838;DHT22;65797;47.352;8.164;2024-03-25T04:23:05;3.60;1.00
76838;DHT22;65797;47.352;8.164;2024-03-25T04:25:33;3.60;1.00
76838;DHT22;65797;47.352;8.164;2024-03-25T04:27:58;3.60;1.00
76838;DHT22;65797;47.352;8.164;2024-03-25T04:30:25;3.60;99.90
76838;DHT22;65797;47.352;8.164;2024-03-25T04:32:51;3.50;99.90
76838;DHT22;65797;47.352;8.164;2024-03-25T04:35:17;3.50;99.90
76838;DHT22;65797;47.352;8.164;2024-03-25T04:37:43;3.50;99.90
76838;DHT22;65797;47.352;8.164;2024-03-25T04:40:09;3.50;1.00
76838;DHT22;65797;47.352;8.164;2024-03-25T04:42:35;3.50;1.00
76838;DHT22;65797;47.352;8.164;2024-03-25T04:45:01;3.50;1.00
76838;DHT22;65797;47.352;8.164;2024-03-25T04:47:27;3.50;1.00
76838;DHT22;65797;47.352;8.164;2024-03-25T06:56:38;7.70;1.00
76838;DHT22;65797;47.352;8.164;2024-03-25T06:59:03;7.70;1.00
76838;DHT22;65797;47.352;8.164;2024-03-25T08:18:46;10.30;99.90
76838;DHT22;65797;47.352;8.164;2024-03-25T08:21:12;10.30;99.90
76838;DHT22;65797;47.352;8.164;2024-03-25T08:23:38;10.10;99.90
76838;DHT22;65797;47.352;8.164;2024-03-25T08:26:03;10.20;99.90
76838;DHT22;65797;47.352;8.164;2024-03-25T08:28:29;10.40;99.90
76838;DHT22;65797;47.352;8.164;2024-03-25T08:30:55;10.80;99.90
76838;DHT22;65797;47.352;8.164;2024-03-25T08:33:21;10.50;99.90
76838;DHT22;65797;47.352;8.164;2024-03-25T08:35:46;10.50;99.90
76838;DHT22;65797;47.352;8.164;2024-03-25T08:38:14;10.70;99.90
76838;DHT22;65797;47.352;8.164;2024-03-25T08:40:40;10.10;99.90
76838;DHT22;65797;47.352;8.164;2024-03-25T08:43:06;10.50;99.90
76838;DHT22;65797;47.352;8.164;2024-03-25T08:45:32;10.30;99.90
76838;DHT22;65797;47.352;8.164;2024-03-25T08:47:58;10.40;99.90
76838;DHT22;65797;47.352;8.164;2024-03-25T08:50:24;10.00;99.90
76838;DHT22;65797;47.352;8.164;2024-03-25T08:52:50;9.60;99.90
76838;DHT22;65797;47.352;8.164;2024-03-25T08:55:16;9.40;99.90
76838;DHT22;65797;47.352;8.164;2024-03-25T08:57:42;9.80;99.90
76838;DHT22;65797;47.352;8.164;2024-03-25T09:00:08;10.60;99.90
76838;DHT22;65797;47.352;8.164;2024-03-25T09:02:36;11.20;99.90
76838;DHT22;65797;47.352;8.164;2024-03-25T09:05:03;11.60;99.90
76838;DHT22;65797;47.352;8.164;2024-03-25T09:07:36;11.60;99.90
76838;DHT22;65797;47.352;8.164;2024-03-25T09:10:02;11.00;99.90
76838;DHT22;65797;47.352;8.164;2024-03-25T09:12:46;11.20;99.90
76838;DHT22;65797;47.352;8.164;2024-03-25T09:15:13;11.30;99.90
76838;DHT22;65797;47.352;8.164;2024-03-25T09:17:40;11.30;99.90
76838;DHT22;65797;47.352;8.164;2024-03-25T09:20:06;11.10;99.90
76838;DHT22;65797;47.352;8.164;2024-03-25T09:22:58;11.70;99.90
76838;DHT22;65797;47.352;8.164;2024-03-25T09:25:24;12.00;99.90
76838;DHT22;65797;47.352;8.164;2024-03-25T09:27:50;11.90;99.90
76838;DHT22;65797;47.352;8.164;2024-03-25T09:30:16;11.90;99.90
76838;DHT22;65797;47.352;8.164;2024-03-25T09:32:44;12.00;99.90
76838;DHT22;65797;47.352;8.164;2024-03-25T09:35:10;11.50;99.90
76838;DHT22;65797;47.352;8.164;2024-03-25T09:40:12;11.30;99.90
76838;DHT22;65797;47.352;8.164;2024-03-25T09:42:48;10.40;99.90
76838;DHT22;65797;47.352;8.164;2024-03-25T10:39:47;12.20;99.90
76838;DHT22;65797;47.352;8.164;2024-03-25T10:42:16;12.40;99.90
76838;DHT22;65797;47.352;8.164;2024-03-25T10:44:44;12.20;99.90
76838;DHT22;65797;47.352;8.164;2024-03-25T10:47:16;12.40;99.90
76838;DHT22;65797;47.352;8.164;2024-03-25T10:49:50;12.50;99.90
76838;DHT22;65797;47.352;8.164;2024-03-25T10:52:18;12.70;99.90
76838;DHT22;65797;47.352;8.164;2024-03-25T10:54:53;12.10;99.90
76838;DHT22;65797;47.352;8.164;2024-03-25T10:57:23;12.40;99.90
76838;DHT22;65797;47.352;8.164;2024-03-25T10:59:49;12.70;99.90
76838;DHT22;65797;47.352;8.164;2024-03-25T11:02:15;12.50;99.90
76838;DHT22;65797;47.352;8.164;2024-03-25T11:04:43;12.60;99.90
76838;DHT22;65797;47.352;8.164;2024-03-25T11:07:15;12.90;99.90
76838;DHT22;65797;47.352;8.164;2024-03-25T11:09:41;13.20;99.90
76838;DHT22;65797;47.352;8.164;2024-03-25T11:12:10;12.80;99.90
76838;DHT22;65797;47.352;8.164;2024-03-25T11:14:36;12.60;99.90
76838;DHT22;65797;47.352;8.164;2024-03-25T11:17:02;12.70;99.90
76838;DHT22;65797;47.352;8.164;2024-03-25T11:19:29;13.00;99.90
76838;DHT22;65797;47.352;8.164;2024-03-25T11:22:07;13.00;99.90
76838;DHT22;65797;47.352;8.164;2024-03-25T11:24:34;13.00;99.90
76838;DHT22;65797;47.352;8.164;2024-03-25T11:27:06;13.40;99.90
76838;DHT22;65797;47.352;8.164;2024-03-25T11:29:33;12.40;99.90
76838;DHT22;65797;47.352;8.164;2024-03-25T11:32:07;12.20;99.90
76838;DHT22;65797;47.352;8.164;2024-03-25T11:34:33;12.60;99.90
76838;DHT22;65797;47.352;8.164;2024-03-25T11:37:00;12.30;99.90
76838;DHT22;65797;47.352;8.164;2024-03-25T11:39:26;12.00;99.90
76838;DHT22;65797;47.352;8.164;2024-03-25T15:18:36;13.40;99.90
76838;DHT22;65797;47.352;8.164;2024-03-25T15:21:05;13.30;99.90
76838;DHT22;65797;47.352;8.164;2024-03-25T15:23:31;13.20;99.90
76838;DHT22;65797;47.352;8.164;2024-03-25T15:25:59;13.30;99.90
76838;DHT22;65797;47.352;8.164;2024-03-25T15:28:25;13.30;99.90
76838;DHT22;65797;47.352;8.164;2024-03-25T15:30:52;13.30;99.90
76838;DHT22;65797;47.352;8.164;2024-03-25T15:33:19;13.00;99.90
76838;DHT22;65797;47.352;8.164;2024-03-25T15:35:44;13.10;99.90
76838;DHT22;65797;47.352;8.164;2024-03-25T15:38:10;13.00;99.90
76838;DHT22;65797;47.352;8.164;2024-03-25T15:48:23;12.60;99.90
76838;DHT22;65797;47.352;8.164;2024-03-25T15:50:48;12.70;99.90
76838;DHT22;65797;47.352;8.164;2024-03-25T15:53:14;12.60;99.90
76838;DHT22;65797;47.352;8.164;2024-03-25T15:55:41;12.60;99.90
76838;DHT22;65797;47.352;8.164;2024-03-25T15:58:08;12.60;99.90
76838;DHT22;65797;47.352;8.164;2024-03-25T16:00:34;12.40;99.90
76838;DHT22;65797;47.352;8.164;2024-03-25T16:03:00;12.50;99.90
76838;DHT22;65797;47.352;8.164;2024-03-25T16:05:26;12.40;99.90
76838;DHT22;65797;47.352;8.164;2024-03-25T16:26:00;12.00;99.90
76838;DHT22;65797;47.352;8.164;2024-03-25T16:28:25;11.90;99.90
76838;DHT22;65797;47.352;8.164;2024-03-25T17:48:41;10.30;99.90
76838;DHT22;65797;47.352;8.164;2024-03-25T17:51:07;10.30;99.90
76838;DHT22;65797;47.352;8.164;2024-03-25T17:53:32;10.20;99.90
76838;DHT22;65797;47.352;8.164;2024-03-25T17:55:58;10.10;99.90
76838;DHT22;65797;47.352;8.164;2024-03-25T17:58:26;10.10;99.90
76838;DHT22;65797;47.352;8.164;2024-03-25T18:00:53;10.10;99.90
76838;DHT22;65797;47.352;8.164;2024-03-25T18:03:21;10.10;99.90
76838;DHT22;65797;47.352;8.164;2024-03-25T18:05:47;10.00;99.90
76838;DHT22;65797;47.352;8.164;2024-03-25T18:08:13;10.00;99.90
76838;DHT22;65797;47.352;8.164;2024-03-25T18:10:39;10.00;99.90
76838;DHT22;65797;47.352;8.164;2024-03-25T18:13:11;9.90;99.90
76838;DHT22;65797;47.352;8.164;2024-03-25T18:15:46;9.80;99.90
76838;DHT22;65797;47.352;8.164;2024-03-25T18:18:12;9.80;99.90
76838;DHT22;65797;47.352;8.164;2024-03-25T18:20:37;9.80;99.90
76838;DHT22;65797;47.352;8.164;2024-03-25T18:23:03;9.80;99.90
76838;DHT22;65797;47.352;8.164;2024-03-25T18:25:29;9.80;99.90
76838;DHT22;65797;47.352;8.164;2024-03-25T18:27:55;9.70;99.90
76838;DHT22;65797;47.352;8.164;2024-03-25T18:30:20;9.70;99.90
76838;DHT22;65797;47.352;8.164;2024-03-25T18:32:46;9.70;99.90
76838;DHT22;65797;47.352;8.164;2024-03-25T18:35:12;9.60;99.90
76838;DHT22;65797;47.352;8.164;2024-03-25T18:37:38;9.60;99.90
76838;DHT22;65797;47.352;8.164;2024-03-25T18:40:04;9.60;99.90
76838;DHT22;65797;47.352;8.164;2024-03-25T18:42:36;9.60;99.90
76838;DHT22;65797;47.352;8.164;2024-03-25T18:45:01;9.50;99.90
76838;DHT22;65797;47.352;8.164;2024-03-25T18:47:27;9.50;99.90
76838;DHT22;65797;47.352;8.164;2024-03-25T18:49:53;9.50;99.90
76838;DHT22;65797;47.352;8.164;2024-03-25T18:52:19;9.50;99.90
76838;DHT22;65797;47.352;8.164;2024-03-25T18:54:44;9.40;99.90
76838;DHT22;65797;47.352;8.164;2024-03-25T18:57:10;9.40;99.90
76838;DHT22;65797;47.352;8.164;2024-03-25T18:59:36;9.40;99.90
76838;DHT22;65797;47.352;8.164;2024-03-25T19:02:01;9.40;99.90
76838;DHT22;65797;47.352;8.164;2024-03-25T19:04:27;9.30;99.90
76838;DHT22;65797;47.352;8.164;2024-03-25T19:06:53;9.30;99.90
76838;DHT22;65797;47.352;8.164;2024-03-25T19:09:18;9.20;99.90
76838;DHT22;65797;47.352;8.164;2024-03-25T19:11:44;9.20;99.90
76838;DHT22;65797;47.352;8.164;2024-03-25T19:14:10;9.20;99.90
76838;DHT22;65797;47.352;8.164;2024-03-25T19:16:36;9.20;99.90
76838;DHT22;65797;47.352;8.164;2024-03-25T19:19:01;9.20;99.90
76838;DHT22;65797;47.352;8.164;2024-03-25T19:21:27;9.20;99.90
76838;DHT22;65797;47.352;8.164;2024-03-25T19:23:53;9.20;99.90
76838;DHT22;65797;47.352;8.164;2024-03-25T19:26:19;9.10;99.90
76838;DHT22;65797;47.352;8.164;2024-03-25T19:28:44;9.00;99.90
76838;DHT22;65797;47.352;8.164;2024-03-25T19:31:10;9.00;99.90
76838;DHT22;65797;47.352;8.164;2024-03-25T19:33:36;9.00;99.90
76838;DHT22;65797;47.352;8.164;2024-03-25T19:36:02;9.00;99.90
76838;DHT22;65797;47.352;8.164;2024-03-25T19:38:28;8.80;99.90
76838;DHT22;65797;47.352;8.164;2024-03-25T19:40:54;8.80;99.90
76838;DHT22;65797;47.352;8.164;2024-03-25T19:43:19;8.80;99.90
76838;DHT22;65797;47.352;8.164;2024-03-25T19:45:45;8.80;99.90
76838;DHT22;65797;47.352;8.164;2024-03-25T19:48:13;8.70;99.90
76838;DHT22;65797;47.352;8.164;2024-03-25T19:50:38;8.60;99.90
76838;DHT22;65797;47.352;8.164;2024-03-25T19:53:04;8.50;99.90
76838;DHT22;65797;47.352;8.164;2024-03-25T19:55:30;8.50;99.90
76838;DHT22;65797;47.352;8.164;2024-03-25T19:57:56;8.50;99.90
76838;DHT22;65797;47.352;8.164;2024-03-25T20:00:21;8.40;99.90
76838;DHT22;65797;47.352;8.164;2024-03-25T20:02:47;8.40;99.90
76838;DHT22;65797;47.352;8.164;2024-03-25T20:05:13;8.30;99.90
76838;DHT22;65797;47.352;8.164;2024-03-25T20:07:38;8.20;99.90
76838;DHT22;65797;47.352;8.164;2024-03-25T20:10:05;8.20;99.90
76838;DHT22;65797;47.352;8.164;2024-03-25T20:12:30;8.20;99.90
76838;DHT22;65797;47.352;8.164;2024-03-25T20:14:56;8.10;99.90
76838;DHT22;65797;47.352;8.164;2024-03-25T20:17:22;8.10;99.90
76838;DHT22;65797;47.352;8.164;2024-03-25T20:19:48;8.00;99.90
76838;DHT22;65797;47.352;8.164;2024-03-25T20:22:13;8.00;99.90
76838;DHT22;65797;47.352;8.164;2024-03-25T20:24:39;8.10;99.90
76838;DHT22;65797;47.352;8.164;2024-03-25T20:27:05;8.00;99.90
76838;DHT22;65797;47.352;8.164;2024-03-25T20:29:30;8.00;99.90
76838;DHT22;65797;47.352;8.164;2024-03-25T20:31:56;8.00;99.90
76838;DHT22;65797;47.352;8.164;2024-03-25T20:34:22;8.00;99.90
76838;DHT22;65797;47.352;8.164;2024-03-25T20:36:48;7.90;99.90
76838;DHT22;65797;47.352;8.164;2024-03-25T20:39:14;7.90;99.90
76838;DHT22;65797;47.352;8.164;2024-03-25T20:41:39;8.00;99.90
76838;DHT22;65797;47.352;8.164;2024-03-25T20:44:05;8.00;99.90
76838;DHT22;65797;47.352;8.164;2024-03-25T20:46:31;8.00;99.90
76838;DHT22;65797;47.352;8.164;2024-03-25T20:48:56;8.00;99.90
76838;DHT22;65797;47.352;8.164;2024-03-25T22:19:38;7.50;99.90
76838;DHT22;65797;47.352;8.164;2024-03-25T22:22:04;7.50;99.90
76838;DHT22;65797;47.352;8.164;2024-03-25T22:24:30;7.50;99.90
76838;DHT22;65797;47.352;8.164;2024-03-25T22:26:55;7.50;99.90
76838;DHT22;65797;47.352;8.164;2024-03-25T22:29:21;7.50;99.90
76838;DHT22;65797;47.352;8.164;2024-03-25T22:31:47;7.50;99.90
76838;DHT22;65797;47.352;8.164;2024-03-25T22:34:12;7.50;99.90
76838;DHT22;65797;47.352;8.164;2024-03-25T22:36:38;7.50;99.90
76838;DHT22;65797;47.352;8.164;2024-03-25T22:39:04;7.50;99.90
76838;DHT22;65797;47.352;8.164;2024-03-25T22:41:30;7.50;99.90
76838;DHT22;65797;47.352;8.164;2024-03-25T22:43:57;7.40;99.90
76838;DHT22;65797;47.352;8.164;2024-03-25T22:46:22;7.40;99.90
76838;DHT22;65797;47.352;8.164;2024-03-25T22:48:48;7.40;99.90
76838;DHT22;65797;47.352;8.164;2024-03-25T22:51:14;7.40;99.90
76838;DHT22;65797;47.352;8.164;2024-03-25T22:53:39;7.40;99.90
76838;DHT22;65797;47.352;8.164;2024-03-25T22:56:06;7.40;99.90
76838;DHT22;65797;47.352;8.164;2024-03-25T22:58:33;7.30;99.90
76838;DHT22;65797;47.352;8.164;2024-03-25T23:01:09;7.30;99.90
76838;DHT22;65797;47.352;8.164;2024-03-25T23:03:38;7.30;99.90
76838;DHT22;65797;47.352;8.164;2024-03-25T23:06:04;7.30;99.90
76838;DHT22;65797;47.352;8.164;2024-03-25T23:08:30;7.30;99.90
76838;DHT22;65797;47.352;8.164;2024-03-25T23:10:56;7.20;99.90
76838;DHT22;65797;47.352;8.164;2024-03-25T23:13:22;7.10;99.90
76838;DHT22;65797;47.352;8.164;2024-03-25T23:15:48;7.00;99.90
76838;DHT22;65797;47.352;8.164;2024-03-25T23:18:14;7.10;99.90
76838;DHT22;65797;47.352;8.164;2024-03-25T23:20:42;7.10;99.90
76838;DHT22;65797;47.352;8.164;2024-03-25T23:23:08;7.00;99.90
76838;DHT22;65797;47.352;8.164;2024-03-25T23:25:36;7.00;99.90
76838;DHT22;65797;47.352;8.164;2024-03-25T23:28:03;6.90;99.90
76838;DHT22;65797;47.352;8.164;2024-03-25T23:30:29;6.90;99.90
76838;DHT22;65797;47.352;8.164;2024-03-25T23:32:56;6.90;99.90
76838;DHT22;65797;47.352;8.164;2024-03-25T23:35:22;6.90;99.90
76838;DHT22;65797;47.352;8.164;2024-03-25T23:37:47;6.90;99.90
76838;DHT22;65797;47.352;8.164;2024-03-25T23:40:13;6.80;99.90
76838;DHT22;65797;47.352;8.164;2024-03-25T23:42:39;6.80;99.90
76838;DHT22;65797;47.352;8.164;2024-03-25T23:45:05;6.80;99.90
76838;DHT22;65797;47.352;8.164;2024-03-25T23:47:32;6.80;99.90
76838;DHT22;65797;47.352;8.164;2024-03-25T23:49:59;6.70;99.90
76838;DHT22;65797;47.352;8.164;2024-03-25T23:52:25;6.70;99.90
76838;DHT22;65797;47.352;8.164;2024-03-25T23:54:50;6.70;99.90
76838;DHT22;65797;47.352;8.164;2024-03-25T23:57:16;6.70;99.90
76838;DHT22;65797;47.352;8.164;2024-03-25T23:59:42;6.60;99.90
